CST,Max TemperatureF,Mean TemperatureF,Min TemperatureF,Max Dew PointF,MeanDew PointF,Min DewpointF,Max Humidity, Mean Humidity, Min Humidity, Max Sea Level PressureIn, Mean Sea Level PressureIn, Min Sea Level PressureIn, Max VisibilityMiles, Mean VisibilityMiles, Min VisibilityMiles, Max Wind SpeedMPH, Mean Wind SpeedMPH, Max Gust SpeedMPH,PrecipitationIn, CloudCover, Events, WindDirDegrees
2012-11-1,65,48,32,41,33,25,81,61,36,29.99,29.94,29.86,10,10,10,16,9,20,0.00,3,,285
2012-11-2,52,40,30,34,30,27,89,68,40,30.13,30.07,29.97,10,10,7,12,7,,0.00,0,,56
2012-11-3,50,40,30,37,34,27,90,72,55,30.24,30.17,30.08,10,10,4,17,10,18,0.00,5,Rain-Thunderstorm,75
2012-11-4,50,38,26,38,32,25,96,80,56,30.28,30.23,30.18,10,9,2,6,1,,0.00,4,Rain,186
2012-11-5,44,41,38,40,38,35,99,88,72,30.19,30.15,30.11,10,7,3,15,6,18,0.08,8,Rain,100
2012-11-6,44,42,40,44,41,36,100,94,85,30.11,29.98,29.89,10,6,1,13,5,20,0.04,8,Rain,239
2012-11-7,45,43,41,41,39,36,98,86,74,30.20,30.09,29.93,10,10,4,16,8,18,0.00,8,Rain,359
2012-11-8,54,44,34,41,37,32,93,78,57,30.22,30.14,30.05,10,10,7,14,6,18,0.00,1,,161
2012-11-9,67,54,40,51,45,38,93,76,51,30.06,29.97,29.90,10,9,5,14,7,18,0.00,2,,147
2012-11-10,77,66,56,55,51,45,88,63,43,29.95,29.88,29.83,10,10,10,21,12,29,0.00,1,Rain,172
2012-11-11,68,50,32,57,48,32,100,82,56,30.10,29.88,29.71,10,9,1,30,17,40,0.53,5,Rain-Snow,219
2012-11-12,40,33,26,32,25,19,100,73,56,30.42,30.27,30.10,10,10,10,24,16,31,0.16,1,,268
2012-11-13,46,34,23,30,25,21,93,71,42,30.54,30.48,30.42,10,10,10,8,5,,0.00,0,,188
2012-11-14,51,42,32,33,31,28,87,72,46,30.49,30.43,30.37,10,10,10,13,7,,0.00,0,,156
2012-11-15,55,44,32,34,30,26,90,67,32,30.38,30.36,30.32,10,10,7,8,5,,0.00,0,,174
2012-11-16,59,45,31,40,34,29,94,74,46,30.47,30.43,30.38,10,9,1,9,3,,0.00,0,,209
2012-11-17,59,44,30,36,31,28,92,70,35,30.52,30.46,30.41,10,8,4,13,5,,0.00,0,,140
2012-11-18,61,46,31,37,33,29,96,67,30,30.42,30.35,30.29,10,8,3,12,6,,0.00,0,,149
2012-11-19,53,47,41,47,41,35,93,80,66,30.28,30.19,30.10,10,10,0,13,7,17,0.10,5,Rain,171
2012-11-20,60,46,32,52,43,32,100,95,68,30.23,30.14,30.08,10,2,0,10,2,,0.00,4,Fog,309
2012-11-21,59,48,36,54,44,37,100,93,65,30.27,30.19,30.10,10,4,0,13,4,,0.00,4,Fog,177
2012-11-22,64,52,39,51,44,33,96,74,53,30.11,29.97,29.83,10,8,2,26,14,34,0.00,3,Rain-Thunderstorm,209
2012-11-23,39,31,23,33,21,17,83,66,52,30.35,30.25,30.11,10,10,10,30,18,40,0.00,1,,299
2012-11-24,30,24,17,23,19,14,89,75,63,30.34,30.21,29.97,10,10,10,13,9,,0.00,1,,238
2012-11-25,44,36,29,30,26,22,85,66,50,30.11,29.97,29.88,10,10,10,13,7,,0.00,3,,289
2012-11-26,34,26,19,27,22,15,87,73,57,30.43,30.29,30.12,10,10,10,18,7,23,0.00,4,,350
2012-11-27,34,23,12,19,15,10,90,66,43,30.47,30.38,30.30,10,10,10,10,6,,0.00,1,,258
2012-11-28,46,34,21,27,22,17,86,66,43,30.44,30.35,30.27,10,10,10,10,7,,0.00,1,,207
2012-11-29,54,40,27,34,30,24,91,71,46,30.27,30.14,30.04,10,10,7,15,7,20,0.00,0,,165
2012-11-30,57,44,30,39,34,28,96,73,49,30.11,30.07,30.03,10,10,5,13,5,,0.00,0,,213